Time;durP1;ratioP1;P1;durP2;ratioP2;P2;SDS_P1;SDS_P2;PMS_P1;PMS_P2;Temp;Humidity;BMP_temperature;BMP_pressure;BME280_temperature;BME280_humidity;BME280_pressure;Samples;Min_cycle;Max_cycle;Signal;HPM_P1;HPM_P2
2021/08/11 00:01:41;;;;;;;8.02;5.65;;;;;;;;;;5114313;28;20528;-49
2021/08/11 00:04:07;;;;;;;8.93;5.55;;;25.60;93.10;;;;;;5113831;28;20063;-48
2021/08/11 00:06:33;;;;;;;10.02;5.93;;;25.70;95.30;;;;;;5060672;28;20071;-48
2021/08/11 00:09:02;;;;;;;7.88;5.70;;;25.70;89.80;;;;;;5113175;28;20024;-49
2021/08/11 00:11:28;;;;;;;9.27;5.53;;;25.60;89.00;;;;;;5127276;28;20031;-50
2021/08/11 00:13:53;;;;;;;8.70;5.90;;;25.80;90.20;;;;;;5076552;28;20111;-48
2021/08/11 00:16:20;;;;;;;12.23;6.10;;;;;;;;;;5115904;28;20570;-51
2021/08/11 00:18:45;;;;;;;10.05;6.43;;;25.80;87.70;;;;;;5114882;28;20462;-51
2021/08/11 00:21:11;;;;;;;10.13;5.55;;;25.90;87.30;;;;;;5111745;28;20027;-46
2021/08/11 00:23:37;;;;;;;7.05;5.60;;;26.00;87.00;;;;;;5114058;28;20020;-47
2021/08/11 00:26:03;;;;;;;7.38;5.10;;;26.20;87.20;;;;;;5111313;28;20070;-46
2021/08/11 00:28:28;;;;;;;8.25;5.50;;;26.20;86.80;;;;;;5112578;28;20364;-48
2021/08/11 00:30:54;;;;;;;9.27;5.45;;;26.20;86.30;;;;;;5078146;28;20122;-51
2021/08/11 00:33:21;;;;;;;13.05;5.47;;;26.20;86.20;;;;;;5062687;28;20471;-49
2021/08/11 00:35:47;;;;;;;6.82;5.05;;;26.20;85.30;;;;;;5075942;28;20032;-49
2021/08/11 00:38:13;;;;;;;8.98;5.50;;;26.20;84.90;;;;;;5118828;28;20122;-49
2021/08/11 00:40:39;;;;;;;7.65;5.45;;;26.20;85.00;;;;;;5093393;28;20169;-51
2021/08/11 00:43:09;;;;;;;7.72;4.70;;;26.20;84.60;;;;;;5112405;28;20130;-49
2021/08/11 00:45:37;;;;;;;7.88;5.13;;;26.20;84.60;;;;;;5051461;28;20244;-49
2021/08/11 00:48:03;;;;;;;13.18;5.13;;;26.20;84.00;;;;;;5055563;28;20033;-48
2021/08/11 00:50:30;;;;;;;7.13;4.90;;;26.20;84.20;;;;;;5008295;28;20037;-51
2021/08/11 00:52:56;;;;;;;8.98;4.72;;;26.20;84.20;;;;;;5059143;28;20041;-47
2021/08/11 00:55:24;;;;;;;7.18;4.90;;;26.10;83.80;;;;;;5056242;28;20029;-47
2021/08/11 00:57:53;;;;;;;7.70;4.80;;;25.70;85.70;;;;;;5054278;28;20037;-47
2021/08/11 01:00:19;;;;;;;10.20;5.75;;;25.20;87.60;;;;;;5054001;28;20033;-50
2021/08/11 01:02:45;;;;;;;8.43;5.65;;;25.00;88.60;;;;;;5056450;28;20036;-50
2021/08/11 01:05:13;;;;;;;8.40;5.60;;;24.90;89.10;;;;;;5021453;28;20033;-49
2021/08/11 01:07:40;;;;;;;8.20;5.40;;;24.90;89.00;;;;;;5054766;28;20153;-48
2021/08/11 01:10:07;;;;;;;10.25;5.28;;;24.90;89.10;;;;;;5054392;28;20033;-49
2021/08/11 01:12:33;;;;;;;6.75;4.97;;;25.00;88.40;;;;;;5019890;28;20033;-50
2021/08/11 01:15:03;;;;;;;9.15;6.78;;;25.20;88.70;;;;;;5054635;28;20162;-49
2021/08/11 01:17:29;;;;;;;8.93;5.70;;;25.40;88.50;;;;;;5117970;27;20119;-49
2021/08/11 01:19:57;;;;;;;6.00;5.10;;;25.40;88.60;;;;;;5116695;27;20024;-46
2021/08/11 01:22:38;;;;;;;8.25;5.28;;;25.40;88.60;;;;;;5119813;27;20024;-49
2021/08/11 01:25:10;;;;;;;7.88;5.70;;;25.40;88.50;;;;;;5116844;27;20027;-47
2021/08/11 01:27:50;;;;;;;7.88;5.70;;;25.50;88.40;;;;;;5116237;27;20020;-46
2021/08/11 01:30:19;;;;;;;8.20;5.88;;;25.40;88.40;;;;;;5118007;27;20152;-51
2021/08/11 01:33:23;;;;;;;6.63;5.07;;;25.40;88.30;;;;;;5114251;27;20043;-50
2021/08/11 01:35:59;;;;;;;8.45;5.32;;;25.50;88.20;;;;;;5101787;27;20501;-52
2021/08/11 01:38:29;;;;;;;9.43;5.55;;;25.50;88.00;;;;;;5086696;27;20067;-47
2021/08/11 01:41:03;;;;;;;10.65;5.85;;;25.40;88.30;;;;;;5120744;27;20035;-50
2021/08/11 01:43:37;;;;;;;14.48;6.15;;;25.40;88.40;;;;;;5109239;27;20040;-49
2021/08/11 01:46:06;;;;;;;8.85;5.85;;;25.40;88.30;;;;;;5101543;27;20387;-46
2021/08/11 01:48:36;;;;;;;8.40;5.97;;;25.40;88.60;;;;;;5116928;27;20051;-52
2021/08/11 01:51:03;;;;;;;7.93;6.03;;;25.20;89.30;;;;;;5116840;27;20478;-48
2021/08/11 01:53:31;;;;;;;8.40;5.35;;;25.30;89.20;;;;;;5115430;27;20028;-47
2021/08/11 01:55:59;;;;;;;9.43;5.90;;;25.30;89.10;;;;;;5100054;27;20023;-49
2021/08/11 01:58:26;;;;;;;11.10;5.82;;;25.20;89.20;;;;;;5076613;27;20027;-51
2021/08/11 02:00:57;;;;;;;7.18;6.45;;;25.10;89.40;;;;;;5116535;27;20026;-50
2021/08/11 02:03:23;;;;;;;8.23;6.10;;;25.00;89.40;;;;;;5096607;27;20891;-47
2021/08/11 02:05:52;;;;;;;9.02;6.00;;;24.70;90.40;;;;;;5119624;27;20035;-49
2021/08/11 02:08:20;;;;;;;8.93;6.40;;;24.60;90.50;;;;;;5116092;27;20027;-51
2021/08/11 02:10:48;;;;;;;11.13;7.50;;;24.80;90.40;;;;;;5075867;27;20541;-50
2021/08/11 02:13:16;;;;;;;8.68;6.20;;;24.80;90.30;;;;;;5114749;27;20031;-49
2021/08/11 02:15:41;;;;;;;10.43;7.10;;;25.00;90.00;;;;;;5118658;27;20058;-50
2021/08/11 02:18:08;;;;;;;9.43;6.53;;;25.00;89.60;;;;;;5114979;27;20063;-49
2021/08/11 02:20:34;;;;;;;8.73;5.82;;;25.10;89.70;;;;;;5116216;27;20032;-47
2021/08/11 02:23:00;;;;;;;9.00;6.03;;;25.10;89.30;;;;;;5067358;27;20609;-50
2021/08/11 02:25:26;;;;;;;9.95;7.28;;;25.10;89.40;;;;;;5110029;27;20027;-47
2021/08/11 02:28:03;;;;;;;7.55;6.50;;;25.00;89.60;;;;;;5116042;27;20027;-48
2021/08/11 02:30:43;;;;;;;8.85;6.10;;;24.80;90.00;;;;;;5118143;27;20030;-47
2021/08/11 02:33:21;;;;;;;7.93;5.82;;;24.80;90.10;;;;;;5116164;27;20093;-50
2021/08/11 02:35:52;;;;;;;8.55;5.75;;;24.80;90.00;;;;;;5116691;27;20042;-48
2021/08/11 02:38:28;;;;;;;6.75;5.78;;;24.80;89.70;;;;;;5114943;27;20031;-49
2021/08/11 02:41:21;;;;;;;7.47;5.40;;;24.40;90.20;;;;;;5118421;27;20028;-49
2021/08/11 02:44:13;;;;;;;8.27;5.95;;;24.40;90.40;;;;;;5109727;28;20079;-51
2021/08/11 02:46:42;;;;;;;14.38;6.13;;;24.50;90.40;;;;;;5116553;27;20027;-49
2021/08/11 02:49:12;;;;;;;7.63;6.07;;;24.60;90.10;;;;;;5115219;27;20031;-50
2021/08/11 02:51:39;;;;;;;11.38;7.38;;;24.80;90.30;;;;;;5115918;27;20468;-48
2021/08/11 02:54:11;;;;;;;11.23;7.07;;;24.80;90.30;;;;;;5072103;28;20028;-51
2021/08/11 02:56:42;;;;;;;11.65;6.63;;;24.80;90.20;;;;;;5073784;28;20055;-50
2021/08/11 02:59:09;;;;;;;10.90;6.13;;;24.80;90.40;;;;;;5073253;28;20043;-47
2021/08/11 03:01:35;;;;;;;10.32;6.38;;;24.80;90.40;;;;;;5081382;28;20043;-51
2021/08/11 03:04:00;;;;;;;8.68;6.03;;;24.80;90.30;;;;;;5073742;28;20124;-46
2021/08/11 03:06:26;;;;;;;10.57;6.35;;;24.80;90.30;;;;;;5041189;28;20044;-47
2021/08/11 03:08:54;;;;;;;11.10;6.30;;;24.80;90.20;;;;;;5065413;28;20016;-50
2021/08/11 03:11:21;;;;;;;9.65;6.05;;;24.80;90.40;;;;;;5073827;28;20076;-46
2021/08/11 03:13:48;;;;;;;8.65;6.40;;;24.70;90.40;;;;;;5071326;28;20025;-50
2021/08/11 03:16:14;;;;;;;9.73;7.18;;;24.70;90.30;;;;;;5072745;28;20456;-51
2021/08/11 03:18:40;;;;;;;8.57;6.68;;;24.70;90.30;;;;;;5045707;28;20579;-53
2021/08/11 03:21:06;;;;;;;10.52;7.03;;;24.70;90.40;;;;;;5070755;28;20100;-52
2021/08/11 03:23:32;;;;;;;9.23;6.22;;;24.70;90.40;;;;;;5053697;28;20041;-52
2021/08/11 03:25:58;;;;;;;7.80;5.80;;;24.70;90.30;;;;;;5056924;28;20128;-49
2021/08/11 03:28:24;;;;;;;9.73;6.07;;;24.60;90.20;;;;;;5070183;28;20487;-51
2021/08/11 03:30:50;;;;;;;8.40;5.53;;;24.60;90.20;;;;;;5073643;27;20153;-49
2021/08/11 03:33:16;;;;;;;10.07;6.28;;;24.50;90.20;;;;;;5112111;27;20375;-49
2021/08/11 03:35:42;;;;;;;8.60;6.05;;;24.50;90.40;;;;;;5046375;28;20024;-50
2021/08/11 03:38:08;;;;;;;7.05;6.05;;;24.50;90.40;;;;;;5120233;27;20545;-50
2021/08/11 03:40:34;;;;;;;10.18;5.55;;;24.40;90.20;;;;;;5118584;28;20050;-51
2021/08/11 03:43:00;;;;;;;9.90;5.85;;;24.30;90.00;;;;;;5113996;28;20127;-48
2021/08/11 03:45:26;;;;;;;7.35;5.80;;;24.20;90.20;;;;;;5121361;28;20076;-47
2021/08/11 03:47:51;;;;;;;7.95;5.97;;;24.20;99.80;;;;;;5063688;28;20035;-50
2021/08/11 03:50:20;;;;;;;7.75;5.38;;;24.10;94.10;;;;;;5114217;28;20436;-48
2021/08/11 03:52:46;;;;;;;9.30;6.38;;;24.00;93.40;;;;;;5116557;28;20031;-49
2021/08/11 03:55:13;;;;;;;13.15;7.32;;;24.00;93.60;;;;;;5118024;28;20348;-52
2021/08/11 03:57:39;;;;;;;8.75;5.88;;;24.00;93.50;;;;;;5115381;28;20031;-49
2021/08/11 04:00:05;;;;;;;11.27;6.10;;;24.10;93.40;;;;;;5116170;28;20023;-50
2021/08/11 04:02:31;;;;;;;8.30;5.88;;;24.00;93.60;;;;;;5064251;28;20032;-52
2021/08/11 04:04:57;;;;;;;17.95;7.70;;;24.10;93.70;;;;;;5117592;28;20444;-51
2021/08/11 04:07:23;;;;;;;9.40;6.30;;;24.10;93.80;;;;;;5061153;28;20032;-48
2021/08/11 04:09:48;;;;;;;9.27;5.40;;;24.10;93.60;;;;;;5082852;28;20059;-50
2021/08/11 04:12:14;;;;;;;11.70;6.28;;;24.00;94.70;;;;;;5116811;28;20026;-50
2021/08/11 04:14:40;;;;;;;8.20;6.30;;;24.10;95.80;;;;;;5118078;28;20032;-46
2021/08/11 04:17:07;;;;;;;10.80;6.00;;;24.20;95.90;;;;;;5047391;28;20040;-48
2021/08/11 04:19:34;;;;;;;9.70;6.30;;;24.30;96.00;;;;;;5077446;28;20044;-48
2021/08/11 04:21:59;;;;;;;8.45;6.35;;;24.30;96.00;;;;;;5120031;27;20028;-50
2021/08/11 04:24:26;;;;;;;7.07;6.38;;;24.30;96.20;;;;;;5118051;27;20016;-48
2021/08/11 04:26:52;;;;;;;11.43;6.00;;;24.30;96.30;;;;;;5121089;27;20107;-49
2021/08/11 04:29:18;;;;;;;11.48;6.95;;;24.40;96.30;;;;;;5054026;27;20067;-50
2021/08/11 04:31:43;;;;;;;11.40;7.32;;;24.40;96.40;;;;;;5082035;27;20038;-51
2021/08/11 04:34:09;;;;;;;11.30;7.10;;;24.40;96.40;;;;;;5118937;27;20015;-50
2021/08/11 04:36:35;;;;;;;9.00;7.18;;;24.40;96.60;;;;;;5085878;27;20047;-49
2021/08/11 04:39:00;;;;;;;9.07;7.30;;;24.40;96.60;;;;;;5066563;27;20027;-50
2021/08/11 04:41:26;;;;;;;9.13;7.00;;;24.40;96.60;;;;;;5120045;27;20050;-46
2021/08/11 04:43:52;;;;;;;12.13;7.43;;;24.40;96.70;;;;;;5080639;28;20056;-51
2021/08/11 04:46:18;;;;;;;11.30;7.20;;;24.40;96.70;;;;;;5111955;27;20023;-49
2021/08/11 04:48:44;;;;;;;8.05;7.28;;;24.50;96.80;;;;;;5109376;27;20023;-48
2021/08/11 04:51:09;;;;;;;8.43;6.75;;;24.50;96.70;;;;;;5093205;28;20038;-50
2021/08/11 04:53:35;;;;;;;10.80;7.22;;;24.60;96.70;;;;;;5113388;27;20031;-47
2021/08/11 04:56:01;;;;;;;10.05;7.50;;;24.50;96.60;;;;;;5115834;27;20024;-50
2021/08/11 04:58:27;;;;;;;9.80;7.78;;;24.60;96.70;;;;;;5117918;27;20032;-51
2021/08/11 05:00:53;;;;;;;13.93;7.90;;;24.60;96.60;;;;;;5107865;27;20085;-48
2021/08/11 05:03:18;;;;;;;10.48;7.70;;;24.60;96.50;;;;;;5094023;28;20126;-49
2021/08/11 05:05:44;;;;;;;14.20;8.30;;;24.70;96.60;;;;;;5100246;28;20074;-51
2021/08/11 05:08:10;;;;;;;13.05;8.23;;;24.70;96.40;;;;;;5113531;27;20050;-50
2021/08/11 05:10:36;;;;;;;11.85;8.32;;;24.70;96.40;;;;;;5116790;27;20024;-48
2021/08/11 05:13:02;;;;;;;15.38;9.85;;;24.70;96.70;;;;;;5105753;27;20034;-47
2021/08/11 05:15:28;;;;;;;17.35;8.55;;;25.00;96.70;;;;;;5106085;27;20016;-46
2021/08/11 05:17:54;;;;;;;17.27;8.55;;;24.90;96.50;;;;;;5085072;28;20031;-48
2021/08/11 05:20:20;;;;;;;17.65;8.90;;;;;;;;;;5082802;27;20039;-49
2021/08/11 05:22:47;;;;;;;13.52;8.90;;;;;;;;;;5115411;27;20107;-47
2021/08/11 05:25:13;;;;;;;13.05;8.52;;;25.00;99.90;;;;;;5107398;27;20043;-52
2021/08/11 05:27:39;;;;;;;13.35;7.65;;;;;;;;;;5103237;27;20032;-48
2021/08/11 05:30:08;;;;;;;16.83;8.80;;;;;;;;;;5101717;27;20479;-48
2021/08/11 05:32:34;;;;;;;21.38;9.77;;;;;;;;;;5100285;27;20028;-50
2021/08/11 05:35:00;;;;;;;12.40;8.02;;;25.80;99.90;;;;;;5105447;27;20020;-48
2021/08/11 05:37:26;;;;;;;16.05;9.95;;;25.80;90.60;;;;;;5118404;27;20103;-49
2021/08/11 05:39:52;;;;;;;10.38;8.02;;;25.80;90.20;;;;;;5118683;27;20059;-50
2021/08/11 05:42:18;;;;;;;15.85;9.15;;;25.90;90.30;;;;;;5090629;28;20071;-48
2021/08/11 05:44:44;;;;;;;12.18;8.73;;;26.00;90.20;;;;;;5111088;27;20114;-53
2021/08/11 05:47:14;;;;;;;18.38;9.00;;;26.00;90.00;;;;;;5114440;27;20078;-51
2021/08/11 05:49:39;;;;;;;15.00;9.98;;;25.80;90.00;;;;;;5101854;27;20039;-50
2021/08/11 05:52:05;;;;;;;13.68;9.05;;;25.70;90.40;;;;;;5114432;27;20663;-49
2021/08/11 06:07:31;;;;;;;12.85;9.18;;;26.00;90.20;;;;;;5081107;27;20407;-50
2021/08/11 06:09:57;;;;;;;16.05;7.88;;;26.60;87.80;;;;;;5071858;28;20031;-49
2021/08/11 06:12:23;;;;;;;12.02;8.40;;;26.50;87.40;;;;;;5097339;28;20041;-49
2021/08/11 06:14:48;;;;;;;16.27;9.38;;;26.60;87.00;;;;;;5106549;28;20035;-50
2021/08/11 06:17:14;;;;;;;12.48;8.60;;;26.80;87.20;;;;;;5079398;28;20028;-49
2021/08/11 06:19:40;;;;;;;15.95;8.77;;;26.80;87.50;;;;;;5087655;28;20040;-47
2021/08/11 06:22:06;;;;;;;14.38;9.73;;;27.00;86.50;;;;;;5093104;28;20551;-50
2021/08/11 06:24:32;;;;;;;13.45;8.55;;;;;;;;;;5068957;28;20061;-48
2021/08/11 06:26:58;;;;;;;13.88;9.32;;;;;;;;;;5071730;28;20032;-50
2021/08/11 06:29:24;;;;;;;13.30;8.77;;;27.50;99.30;;;;;;5093579;28;20033;-47
2021/08/11 06:31:50;;;;;;;15.35;8.80;;;;;;;;;;5066795;28;20029;-49
2021/08/11 06:34:17;;;;;;;18.92;8.77;;;;;;;;;;5066301;28;20025;-46
2021/08/11 06:36:43;;;;;;;14.98;9.55;;;;;;;;;;5065072;28;20044;-51
2021/08/11 06:39:09;;;;;;;21.75;10.55;;;27.90;81.50;;;;;;5063052;28;20193;-50
2021/08/11 06:41:35;;;;;;;15.57;9.30;;;28.00;81.50;;;;;;5069721;28;20128;-48
2021/08/11 06:44:01;;;;;;;15.02;8.13;;;28.20;79.70;;;;;;5086358;28;20039;-49
2021/08/11 06:46:26;;;;;;;17.63;9.32;;;28.30;80.80;;;;;;5105217;27;20129;-48
2021/08/11 06:48:55;;;;;;;10.35;7.18;;;28.50;79.70;;;;;;5098834;28;20034;-47
2021/08/11 06:51:21;;;;;;;12.02;7.18;;;28.40;78.50;;;;;;5088609;28;20472;-48
2021/08/11 06:53:46;;;;;;;9.60;6.60;;;28.70;90.70;;;;;;5068852;28;20021;-48
2021/08/11 06:56:12;;;;;;;11.07;5.82;;;28.80;75.90;;;;;;5111426;27;20053;-48
2021/08/11 06:58:38;;;;;;;10.23;5.70;;;29.00;74.40;;;;;;5078260;28;20027;-48
2021/08/11 07:01:04;;;;;;;12.77;6.13;;;28.90;74.50;;;;;;5071321;28;20024;-48
2021/08/11 07:03:30;;;;;;;11.85;5.85;;;28.90;73.60;;;;;;5081849;28;20039;-48
2021/08/11 07:05:56;;;;;;;12.50;7.22;;;28.90;73.40;;;;;;5076069;28;20173;-49
2021/08/11 07:08:22;;;;;;;10.13;5.43;;;;;;;;;;5060445;28;20040;-47
2021/08/11 07:10:49;;;;;;;9.20;5.32;;;;;;;;;;5085277;28;20040;-47
2021/08/11 07:13:19;;;;;;;7.28;5.03;;;29.30;94.20;;;;;;5045230;28;20026;-48
2021/08/11 07:15:45;;;;;;;9.25;5.57;;;29.40;89.60;;;;;;5060870;28;20035;-48
2021/08/11 07:18:15;;;;;;;17.02;7.30;;;29.50;72.00;;;;;;5070378;28;20041;-47
2021/08/11 07:20:41;;;;;;;10.05;5.72;;;29.50;73.00;;;;;;5057466;28;20436;-48
2021/08/11 07:23:07;;;;;;;13.95;6.22;;;29.50;74.30;;;;;;5054355;28;20127;-47
2021/08/11 07:25:32;;;;;;;11.88;6.40;;;29.60;77.80;;;;;;5060610;28;20040;-48
2021/08/11 07:27:58;;;;;;;10.90;5.85;;;29.60;72.80;;;;;;5075704;28;20035;-48
2021/08/11 07:30:24;;;;;;;10.45;5.50;;;29.80;88.60;;;;;;5055936;28;20032;-48
2021/08/11 07:32:50;;;;;;;9.68;4.50;;;29.80;88.70;;;;;;5061189;28;20044;-48
2021/08/11 07:35:16;;;;;;;8.02;5.22;;;29.80;86.60;;;;;;5066730;28;20128;-47
2021/08/11 07:37:46;;;;;;;14.50;6.07;;;29.80;85.60;;;;;;5045544;28;20411;-48
2021/08/11 07:40:13;;;;;;;11.50;5.75;;;;;;;;;;5056198;28;20021;-48
2021/08/11 07:42:40;;;;;;;11.63;6.25;;;30.20;87.60;;;;;;5084947;28;20411;-49
2021/08/11 07:45:06;;;;;;;11.48;5.93;;;;;;;;;;5076398;28;20476;-48
2021/08/11 07:47:32;;;;;;;13.15;6.85;;;30.30;92.50;;;;;;5066898;28;20075;-49
2021/08/11 07:49:58;;;;;;;10.07;5.85;;;;;;;;;;5050303;28;20060;-47
2021/08/11 07:52:24;;;;;;;12.27;5.53;;;;;;;;;;5058643;28;20028;-48
2021/08/11 07:54:50;;;;;;;9.73;5.65;;;;;;;;;;5083853;28;20036;-48
2021/08/11 07:57:16;;;;;;;13.25;4.97;;;;;;;;;;5053300;28;20106;-49
2021/08/11 07:59:43;;;;;;;9.75;4.95;;;;;;;;;;5095511;27;20041;-48
2021/08/11 08:02:11;;;;;;;13.90;7.72;;;;;;;;;;5052398;28;20029;-49
2021/08/11 08:04:37;;;;;;;11.77;5.85;;;;;;;;;;5101354;27;20863;-48
2021/08/11 08:07:03;;;;;;;13.90;5.88;;;;;;;;;;5048870;28;20041;-47
2021/08/11 08:09:30;;;;;;;9.45;5.07;;;;;;;;;;5049387;28;20185;-49
2021/08/11 08:11:56;;;;;;;7.47;4.78;;;;;;;;;;5053063;28;20472;-48
2021/08/11 08:14:22;;;;;;;7.47;4.60;;;;;;;;;;5067735;28;20044;-48
2021/08/11 08:16:48;;;;;;;9.55;5.20;;;31.70;95.20;;;;;;5049609;28;20106;-48
2021/08/11 08:19:14;;;;;;;8.60;4.97;;;;;;;;;;5049769;28;20024;-49
2021/08/11 08:21:40;;;;;;;9.52;5.32;;;;;;;;;;5052763;28;20025;-48
2021/08/11 08:24:06;;;;;;;10.77;4.82;;;;;;;;;;5051717;28;20037;-48
2021/08/11 08:26:32;;;;;;;6.30;4.13;;;;;;;;;;5055655;28;20075;-48
2021/08/11 08:28:58;;;;;;;8.82;4.75;;;;;;;;;;5051277;28;20476;-48
2021/08/11 08:31:25;;;;;;;7.82;4.60;;;;;;;;;;5065787;28;20063;-48
2021/08/11 08:33:51;;;;;;;11.02;4.53;;;;;;;;;;5083441;28;20051;-48
2021/08/11 08:36:17;;;;;;;5.90;4.30;;;;;;;;;;5053165;28;20032;-47
2021/08/11 08:38:43;;;;;;;7.70;4.95;;;;;;;;;;5053624;28;20244;-49
2021/08/11 08:41:11;;;;;;;6.80;4.05;;;;;;;;;;5049037;28;20491;-48
2021/08/11 08:43:37;;;;;;;6.32;4.28;;;;;;;;;;5067944;28;20033;-47
2021/08/11 08:46:03;;;;;;;7.45;4.10;;;;;;;;;;5051749;28;20029;-47
2021/08/11 08:48:30;;;;;;;10.00;4.47;;;;;;;;;;5051290;28;20468;-48
2021/08/11 08:50:56;;;;;;;6.68;4.15;;;;;;;;;;5050920;28;20463;-48
2021/08/11 08:53:23;;;;;;;13.25;4.72;;;33.50;59.70;;;;;;5047737;28;20352;-48
2021/08/11 08:55:49;;;;;;;9.80;4.75;;;;;;;;;;5053732;28;20455;-47
2021/08/11 08:58:16;;;;;;;7.68;4.68;;;34.20;88.70;;;;;;5052967;28;20051;-47
2021/08/11 09:00:42;;;;;;;10.70;4.88;;;34.20;61.50;;;;;;5051357;28;20033;-48
2021/08/11 09:03:08;;;;;;;9.02;4.90;;;34.00;59.50;;;;;;5053420;28;20100;-48
2021/08/11 09:05:34;;;;;;;13.13;4.97;;;34.30;69.20;;;;;;5068118;28;20063;-47
2021/08/11 09:08:00;;;;;;;6.90;4.30;;;34.30;60.30;;;;;;5052021;28;20539;-47
2021/08/11 09:10:29;;;;;;;10.23;4.45;;;34.20;59.20;;;;;;5052361;28;20031;-48
2021/08/11 09:13:05;;;;;;;10.80;4.90;;;34.20;58.80;;;;;;5051614;28;20564;-48
2021/08/11 09:15:33;;;;;;;14.05;4.93;;;34.60;59.60;;;;;;5051657;28;20475;-48
2021/08/11 09:18:09;;;;;;;8.27;4.72;;;;;;;;;;5051154;28;20033;-48
2021/08/11 09:20:36;;;;;;;8.30;4.68;;;;;;;;;;5053164;28;20023;-48
2021/08/11 09:23:02;;;;;;;4.70;3.25;;;;;;;;;;5052897;28;20431;-48
2021/08/11 09:25:28;;;;;;;6.82;3.10;;;;;;;;;;5053730;28;20033;-48
2021/08/11 09:27:54;;;;;;;6.43;3.20;;;;;;;;;;5053875;28;20024;-48
2021/08/11 09:30:21;;;;;;;7.90;3.40;;;;;;;;;;5053338;28;20032;-48
2021/08/11 09:32:53;;;;;;;7.50;3.33;;;;;;;;;;5068769;28;20155;-48
2021/08/11 09:35:39;;;;;;;4.88;3.13;;;;;;;;;;5053814;28;20102;-47
2021/08/11 09:38:07;;;;;;;10.32;3.10;;;;;;;;;;5053469;28;20116;-48
2021/08/11 09:40:35;;;;;;;9.40;3.55;;;;;;;;;;5053674;28;20044;-48
2021/08/11 09:43:03;;;;;;;8.05;3.25;;;;;;;;;;5053819;28;20029;-48
2021/08/11 09:45:42;;;;;;;6.25;3.50;;;;;;;;;;5053610;28;20017;-48
2021/08/11 09:48:09;;;;;;;9.23;3.50;;;;;;;;;;5052437;28;20087;-48
2021/08/11 09:50:39;;;;;;;6.43;3.40;;;;;;;;;;5052856;28;20031;-48
2021/08/11 09:53:07;;;;;;;9.13;3.27;;;36.60;53.10;;;;;;5050194;28;20063;-48
2021/08/11 09:56:03;;;;;;;6.65;2.90;;;36.40;51.30;;;;;;5050270;28;20318;-48
2021/08/11 09:58:33;;;;;;;5.40;2.85;;;;;;;;;;5012879;28;20052;-48
2021/08/11 10:00:59;;;;;;;4.67;2.77;;;37.00;87.80;;;;;;5049759;28;20029;-51
2021/08/11 10:03:25;;;;;;;7.40;2.80;;;37.20;65.80;;;;;;5050276;28;20025;-51
2021/08/11 10:05:53;;;;;;;4.45;2.85;;;36.60;64.80;;;;;;5050105;28;20041;-46
2021/08/11 10:08:34;;;;;;;3.92;3.08;;;;;;;;;;5050502;28;20399;-48
2021/08/11 10:11:01;;;;;;;6.85;3.10;;;;;;;;;;5034055;28;20140;-49
2021/08/11 10:13:28;;;;;;;5.30;3.05;;;;;;;;;;5051102;28;20091;-50
2021/08/11 10:15:55;;;;;;;4.63;2.85;;;;;;;;;;5050085;28;20044;-48
2021/08/11 10:18:25;;;;;;;8.95;3.45;;;;;;;;;;5050281;28;20535;-48
2021/08/11 10:20:55;;;;;;;3.90;3.05;;;37.40;88.30;;;;;;5050358;28;20124;-49
2021/08/11 10:23:21;;;;;;;4.97;2.92;;;37.60;51.40;;;;;;5016969;28;20065;-49
2021/08/11 10:25:48;;;;;;;9.10;3.78;;;37.30;58.90;;;;;;5018630;28;20112;-50
2021/08/11 10:28:19;;;;;;;3.80;3.05;;;37.50;51.50;;;;;;5053084;28;20134;-48
2021/08/11 10:30:45;;;;;;;9.85;3.35;;;37.50;48.80;;;;;;5053100;28;20059;-49
2021/08/11 10:33:14;;;;;;;7.50;3.10;;;37.60;48.70;;;;;;5052886;28;20096;-50
2021/08/11 10:35:43;;;;;;;5.97;2.97;;;37.10;48.00;;;;;;5052004;28;20032;-51
2021/08/11 10:38:09;;;;;;;6.22;3.25;;;37.30;48.70;;;;;;5052400;28;20047;-49
2021/08/11 10:40:35;;;;;;;5.13;3.03;;;;;;;;;;5065189;28;20116;-51
2021/08/11 10:43:02;;;;;;;8.00;3.45;;;;;;;;;;5069532;28;20060;-52
2021/08/11 10:45:28;;;;;;;5.97;3.25;;;38.10;64.00;;;;;;5056530;28;20029;-49
2021/08/11 10:47:54;;;;;;;9.00;3.20;;;;;;;;;;5056609;28;20035;-50
2021/08/11 10:50:20;;;;;;;6.72;3.20;;;;;;;;;;5071494;28;20381;-51
2021/08/11 10:52:47;;;;;;;3.97;3.03;;;;;;;;;;5056705;28;20029;-49
2021/08/11 10:55:13;;;;;;;8.43;3.45;;;;;;;;;;5056428;28;20528;-52
2021/08/11 10:57:40;;;;;;;7.45;3.45;;;;;;;;;;5056587;28;20060;-51
2021/08/11 11:00:09;;;;;;;4.43;3.08;;;;;;;;;;5056541;28;20033;-49
2021/08/11 11:02:42;;;;;;;5.95;3.03;;;;;;;;;;5056499;28;20547;-53
2021/08/11 11:05:09;;;;;;;4.97;3.15;;;;;;;;;;5056091;28;20029;-52
2021/08/11 11:07:35;;;;;;;4.55;2.92;;;;;;;;;;5056556;28;20028;-50
2021/08/11 11:10:20;;;;;;;5.57;2.90;;;;;;;;;;5054552;28;20118;-51
2021/08/11 11:12:46;;;;;;;10.75;3.28;;;;;;;;;;5056197;28;20028;-52
2021/08/11 11:15:13;;;;;;;3.58;2.80;;;;;;;;;;5055982;28;20031;-52
2021/08/11 11:17:58;;;;;;;5.10;3.17;;;;;;;;;;5056124;28;20025;-51
2021/08/11 11:20:25;;;;;;;3.65;3.05;;;;;;;;;;5055435;28;20472;-51
2021/08/11 11:22:52;;;;;;;8.45;3.75;;;;;;;;;;5070905;28;20029;-48
2021/08/11 11:25:19;;;;;;;6.35;2.92;;;;;;;;;;5055752;28;20021;-51
2021/08/11 11:27:50;;;;;;;6.47;2.95;;;;;;;;;;5055704;28;20469;-51
2021/08/11 11:30:16;;;;;;;;;;;;;;;;;;5056249;28;20041;-52
2021/08/11 11:32:42;;;;;;;5.60;3.10;;;;;;;;;;5056087;28;19959;-49
2021/08/11 11:35:18;;;;;;;8.73;3.50;;;;;;;;;;5055741;28;20029;-51
2021/08/11 11:37:44;;;;;;;11.27;4.18;;;;;;;;;;5033938;28;20037;-49
2021/08/11 11:40:14;;;;;;;4.45;3.10;;;;;;;;;;5054950;28;20032;-49
2021/08/11 11:42:41;;;;;;;4.80;3.10;;;;;;;;;;5069825;28;20120;-49
2021/08/11 11:45:08;;;;;;;6.45;2.90;;;;;;;;;;5055875;28;20063;-48
2021/08/11 11:47:38;;;;;;;8.52;3.22;;;;;;;;;;5055517;28;20029;-51
2021/08/11 11:50:25;;;;;;;4.50;2.97;;;;;;;;;;5055436;28;20036;-49
2021/08/11 11:52:52;;;;;;;7.32;3.15;;;;;;;;;;5054530;28;20036;-50
2021/08/11 11:55:27;;;;;;;5.00;3.10;;;;;;;;;;5055623;28;20356;-51
2021/08/11 11:57:54;;;;;;;5.55;2.92;;;;;;;;;;5055604;28;20108;-48
2021/08/11 12:00:21;;;;;;;6.35;3.03;;;;;;;;;;5054689;28;20033;-53
2021/08/11 12:02:51;;;;;;;4.75;2.70;;;;;;;;;;5055213;28;20480;-51
2021/08/11 12:05:17;;;;;;;8.63;3.25;;;;;;;;;;5055189;28;20077;-48
2021/08/11 12:07:43;;;;;;;4.32;2.90;;;;;;;;;;5055076;28;20028;-49
2021/08/11 12:10:09;;;;;;;5.70;3.22;;;;;;;;;;5053130;28;20036;-48
2021/08/11 12:12:36;;;;;;;5.75;2.88;;;;;;;;;;5054092;28;20167;-52
2021/08/11 12:15:15;;;;;;;4.25;3.03;;;;;;;;;;5054522;28;20040;-49
2021/08/11 12:17:42;;;;;;;7.40;3.15;;;;;;;;;;5054886;28;20492;-52
2021/08/11 12:20:25;;;;;;;5.43;3.55;;;;;;;;;;5054645;28;20514;-47
2021/08/11 12:22:51;;;;;;;6.57;2.70;;;;;;;;;;5054489;28;20068;-52
2021/08/11 12:25:20;;;;;;;6.07;2.97;;;;;;;;;;5054045;28;20032;-51
2021/08/11 12:28:06;;;;;;;6.00;2.97;;;;;;;;;;5053498;28;20033;-49
2021/08/11 12:30:32;;;;;;;7.93;2.80;;;;;;;;;;5053588;28;20078;-49
2021/08/11 12:32:59;;;;;;;6.95;3.35;;;;;;;;;;5051364;28;20036;-49
2021/08/11 12:35:25;;;;;;;6.82;3.00;;;;;;;;;;5052482;28;20025;-50
2021/08/11 12:37:51;;;;;;;5.65;2.60;;;;;;;;;;5053458;28;20021;-50
2021/08/11 12:40:37;;;;;;;5.00;2.92;;;;;;;;;;5053049;28;20094;-48
2021/08/11 12:43:04;;;;;;;5.13;2.60;;;;;;;;;;5052523;28;20029;-49
2021/08/11 12:45:47;;;;;;;5.28;2.75;;;;;;;;;;5052571;28;20104;-50
2021/08/11 12:48:24;;;;;;;5.47;3.00;;;;;;;;;;5063496;28;20067;-50
2021/08/11 12:50:50;;;;;;;4.10;2.50;;;;;;;;;;5070245;28;20119;-51
2021/08/11 12:53:26;;;;;;;3.90;2.38;;;;;;;;;;5038867;28;20085;-52
2021/08/11 12:56:10;;;;;;;6.03;2.72;;;;;;;;;;5071959;28;20055;-48
2021/08/11 12:58:55;;;;;;;6.18;2.97;;;;;;;;;;5071955;28;20024;-51
2021/08/11 13:01:28;;;;;;;5.10;3.08;;;;;;;;;;5071825;28;20090;-51
2021/08/11 13:03:54;;;;;;;7.60;3.28;;;;;;;;;;5072181;28;20115;-49
2021/08/11 13:06:31;;;;;;;5.75;3.15;;;38.60;73.10;;;;;;5070968;28;20044;-49
2021/08/11 13:08:57;;;;;;;6.05;3.20;;;38.30;73.10;;;;;;5070964;28;20032;-51
2021/08/11 13:11:23;;;;;;;5.78;2.65;;;38.40;74.60;;;;;;5071284;28;20041;-49
2021/08/11 13:13:51;;;;;;;5.28;2.70;;;;;;;;;;5038657;28;20403;-50
2021/08/11 13:16:17;;;;;;;5.43;2.78;;;;;;;;;;5088428;28;20048;-48
2021/08/11 13:18:44;;;;;;;5.53;3.15;;;;;;;;;;5071352;28;20483;-51
2021/08/11 13:21:10;;;;;;;7.18;2.90;;;;;;;;;;5062544;28;20061;-49
2021/08/11 13:23:37;;;;;;;4.45;2.90;;;;;;;;;;5033949;28;20025;-50
2021/08/11 13:26:03;;;;;;;6.75;2.65;;;;;;;;;;5033735;28;20057;-52
2021/08/11 13:28:31;;;;;;;8.30;3.58;;;;;;;;;;5048198;28;20061;-50
2021/08/11 13:30:58;;;;;;;4.65;3.08;;;;;;;;;;5033766;28;20041;-51
2021/08/11 13:33:24;;;;;;;5.97;2.58;;;;;;;;;;5031825;28;20045;-49
2021/08/11 13:35:50;;;;;;;10.57;2.95;;;;;;;;;;5033610;28;20132;-49
2021/08/11 13:38:16;;;;;;;4.10;2.60;;;38.70;82.00;;;;;;5033600;28;20118;-48
2021/08/11 13:40:43;;;;;;;4.15;2.63;;;38.90;48.20;;;;;;5033488;28;20068;-48
2021/08/11 13:43:09;;;;;;;3.60;2.72;;;39.10;48.40;;;;;;5071276;28;20457;-51